createdAt,value
2019-06-20T00:02:14.625Z,42.40
2019-06-20T00:04:44.242Z,42.30
2019-06-20T00:07:13.011Z,42.30
2019-06-20T00:09:41.772Z,42.20
2019-06-20T00:12:10.549Z,42.10
2019-06-20T00:14:39.319Z,42.10
2019-06-20T00:17:08.090Z,42.10
2019-06-20T00:19:36.848Z,42.20
2019-06-20T00:22:05.625Z,42.10
2019-06-20T00:24:34.388Z,42.10
2019-06-20T00:27:03.197Z,42.10
2019-06-20T00:29:31.925Z,42.10
2019-06-20T00:32:00.700Z,42.20
2019-06-20T00:34:29.464Z,42.10
2019-06-20T00:36:58.244Z,42.20
2019-06-20T00:39:27.003Z,42.10
2019-06-20T00:41:55.780Z,42.20
2019-06-20T00:44:24.543Z,42.10
2019-06-20T00:46:53.314Z,42.10
2019-06-20T00:49:22.069Z,42.00
2019-06-20T00:51:50.839Z,42.00
2019-06-20T00:54:19.605Z,42.10
2019-06-20T00:56:48.371Z,42.20
2019-06-20T00:59:17.135Z,42.10
2019-06-20T01:01:45.900Z,42.10
2019-06-20T01:04:14.668Z,42.10
2019-06-20T01:06:43.444Z,42.10
2019-06-20T01:09:12.200Z,42.10
2019-06-20T01:11:40.981Z,42.10
2019-06-20T01:14:09.744Z,42.10
2019-06-20T01:16:38.509Z,42.00
2019-06-20T01:19:07.280Z,42.00
2019-06-20T01:21:36.053Z,42.00
2019-06-20T01:24:05.123Z,42.00
2019-06-20T01:26:33.896Z,42.00
2019-06-20T01:29:02.654Z,41.90
2019-06-20T01:31:31.429Z,41.90
2019-06-20T01:34:00.296Z,41.80
2019-06-20T01:36:29.068Z,41.80
2019-06-20T01:38:57.847Z,41.90
2019-06-20T01:41:26.609Z,41.80
2019-06-20T01:43:55.383Z,41.90
2019-06-20T01:46:24.140Z,41.80
2019-06-20T01:48:52.914Z,41.80
2019-06-20T01:51:21.676Z,41.80
2019-06-20T01:53:50.456Z,41.80
2019-06-20T01:56:19.222Z,41.90
2019-06-20T01:58:48.005Z,41.80
2019-06-20T02:01:17.068Z,41.70
2019-06-20T02:03:45.846Z,41.70
2019-06-20T02:06:14.621Z,41.70
2019-06-20T02:08:43.391Z,41.80
2019-06-20T02:11:12.156Z,41.70
2019-06-20T02:13:40.925Z,41.80
2019-06-20T02:16:09.683Z,41.80
2019-06-20T02:18:38.456Z,42.00
2019-06-20T02:21:07.626Z,42.00
2019-06-20T02:23:36.392Z,42.00
2019-06-20T02:26:05.254Z,41.80
2019-06-20T02:28:34.033Z,41.80
2019-06-20T02:31:02.796Z,41.70
2019-06-20T02:33:31.565Z,41.60
2019-06-20T02:36:00.334Z,41.60
2019-06-20T02:38:29.097Z,41.60
2019-06-20T02:40:57.868Z,41.60
2019-06-20T02:43:26.844Z,41.60
2019-06-20T02:45:55.704Z,41.60
2019-06-20T02:48:24.482Z,41.60
2019-06-20T02:50:53.243Z,41.50
2019-06-20T02:53:22.016Z,41.50
2019-06-20T02:55:50.775Z,41.50
2019-06-20T02:58:19.556Z,41.50
2019-06-20T03:00:51.252Z,41.40
2019-06-20T03:03:20.029Z,41.30
2019-06-20T03:05:48.811Z,41.40
2019-06-20T03:08:17.567Z,41.30
2019-06-20T03:10:46.337Z,41.20
2019-06-20T03:13:15.103Z,41.30
2019-06-20T03:15:43.869Z,41.30
2019-06-20T03:18:12.640Z,41.20
2019-06-20T03:20:41.406Z,41.20
2019-06-20T03:23:10.173Z,41.30
2019-06-20T03:25:38.985Z,41.40
2019-06-20T03:28:07.773Z,41.30
2019-06-20T03:30:36.525Z,41.30
2019-06-20T03:33:05.335Z,41.40
2019-06-20T03:35:34.060Z,41.30
2019-06-20T03:38:02.874Z,41.30
2019-06-20T03:40:31.609Z,41.20
2019-06-20T03:43:00.376Z,41.30
2019-06-20T03:45:29.149Z,41.20
2019-06-20T03:47:57.911Z,41.20
2019-06-20T03:50:26.672Z,41.30
2019-06-20T03:53:01.341Z,41.30
2019-06-20T03:55:30.793Z,41.40
2019-06-20T03:58:00.172Z,41.40
2019-06-20T04:00:32.120Z,41.30
2019-06-20T04:03:00.885Z,41.40
2019-06-20T04:05:29.656Z,41.40
2019-06-20T04:07:58.426Z,41.30
2019-06-20T04:10:27.199Z,41.30
2019-06-20T04:12:55.960Z,41.80
2019-06-20T04:15:24.832Z,41.20
2019-06-20T04:17:54.871Z,41.00
2019-06-20T04:20:23.625Z,40.90
2019-06-20T04:22:52.369Z,40.70
2019-06-20T04:25:21.267Z,40.60
2019-06-20T04:27:50.026Z,40.60
2019-06-20T04:30:19.384Z,41.10
2019-06-20T04:32:48.310Z,40.40
2019-06-20T04:35:17.137Z,40.40
2019-06-20T04:37:45.900Z,40.50
2019-06-20T04:40:15.977Z,41.20
2019-06-20T04:42:44.790Z,41.20
2019-06-20T04:45:33.971Z,40.50
2019-06-20T04:47:48.866Z,40.70
2019-06-20T04:50:17.633Z,40.70
2019-06-20T04:52:46.401Z,41.10
2019-06-20T04:55:15.181Z,40.80
2019-06-20T04:57:43.945Z,40.90
2019-06-20T05:00:13.019Z,40.90
2019-06-20T05:02:41.782Z,40.90
2019-06-20T05:05:12.122Z,41.10
2019-06-20T05:07:40.894Z,41.20
2019-06-20T05:10:10.165Z,41.50
2019-06-20T05:12:38.936Z,41.70
2019-06-20T05:15:08.267Z,42.10
2019-06-20T05:17:37.183Z,42.50
2019-06-20T05:20:06.769Z,42.70
2019-06-20T05:22:35.533Z,43.00
2019-06-20T05:25:05.111Z,42.80
2019-06-20T05:27:33.913Z,42.90
2019-06-20T05:30:02.819Z,42.90
2019-06-20T05:32:31.576Z,43.00
2019-06-20T05:35:02.969Z,43.10
2019-06-20T05:37:31.941Z,43.10
2019-06-20T05:40:00.750Z,42.80
2019-06-20T05:42:29.531Z,42.20
2019-06-20T05:44:58.316Z,42.20
2019-06-20T05:47:27.102Z,41.80
2019-06-20T05:49:55.919Z,41.80
2019-06-20T05:52:27.632Z,41.10
2019-06-20T05:54:56.920Z,41.50
2019-06-20T05:57:26.485Z,41.40
2019-06-20T05:59:56.858Z,41.20
2019-06-20T06:02:25.797Z,41.10
2019-06-20T06:04:56.128Z,41.00
2019-06-20T06:07:24.965Z,41.10
2019-06-20T06:09:53.919Z,41.40
2019-06-20T06:12:22.691Z,41.30
2019-06-20T06:14:51.618Z,41.20
2019-06-20T06:17:21.087Z,41.30
2019-06-20T06:19:50.231Z,41.50
2019-06-20T06:22:18.996Z,41.60
2019-06-20T06:24:47.791Z,41.60
2019-06-20T06:27:16.693Z,41.80
2019-06-20T06:29:45.525Z,42.00
2019-06-20T06:32:14.348Z,42.50
2019-06-20T06:34:43.111Z,42.40
2019-06-20T06:37:11.993Z,42.70
2019-06-20T06:39:43.482Z,42.80
2019-06-20T06:42:11.265Z,42.90
2019-06-20T06:44:40.014Z,42.90
2019-06-20T06:47:08.864Z,43.00
2019-06-20T06:49:37.625Z,43.20
2019-06-20T06:52:06.466Z,43.30
2019-06-20T06:54:35.424Z,42.70
2019-06-20T06:57:04.444Z,43.00
2019-06-20T06:59:33.223Z,42.90
2019-06-20T07:02:02.001Z,42.80
2019-06-20T07:04:30.802Z,43.00
2019-06-20T07:06:59.565Z,42.40
2019-06-20T07:09:28.342Z,42.70
2019-06-20T07:11:57.124Z,42.20
2019-06-20T07:14:25.912Z,42.40
2019-06-20T07:17:00.149Z,42.50
2019-06-20T07:19:25.244Z,42.40
2019-06-20T07:21:54.100Z,42.50
2019-06-20T07:24:22.873Z,42.60
2019-06-20T07:26:51.654Z,42.70
2019-06-20T07:29:20.420Z,42.60
2019-06-20T07:31:49.201Z,42.70
2019-06-20T07:34:17.974Z,42.10
2019-06-20T07:36:46.749Z,41.60
2019-06-20T07:39:15.525Z,41.40
2019-06-20T07:41:44.340Z,41.70
2019-06-20T07:44:13.328Z,41.80
2019-06-20T07:46:42.172Z,42.10
2019-06-20T07:49:10.970Z,42.50
2019-06-20T07:51:39.784Z,42.20
2019-06-20T07:54:08.762Z,41.70
2019-06-20T07:56:37.506Z,41.60
2019-06-20T07:59:06.293Z,42.00
2019-06-20T08:01:35.062Z,42.40
2019-06-20T08:04:03.838Z,42.80
2019-06-20T08:06:32.665Z,44.10
2019-06-20T08:09:01.642Z,45.70
2019-06-20T08:11:32.560Z,46.50
2019-06-20T08:14:01.593Z,47.30
2019-06-20T08:16:30.424Z,48.00
2019-06-20T08:18:59.314Z,48.60
2019-06-20T08:21:28.320Z,49.00
2019-06-20T08:23:57.144Z,49.20
2019-06-20T08:26:25.978Z,49.60
2019-06-20T08:29:10.213Z,49.80
2019-06-20T08:31:25.276Z,50.00
2019-06-20T08:33:54.061Z,50.30
2019-06-20T08:36:25.264Z,50.40
2019-06-20T08:38:54.073Z,50.60
2019-06-20T08:41:22.939Z,50.70
2019-06-20T08:43:51.778Z,50.90
2019-06-20T08:46:20.800Z,51.10
2019-06-20T08:48:51.112Z,51.10
2019-06-20T08:51:21.609Z,51.20
2019-06-20T08:53:52.076Z,51.30
2019-06-20T08:56:20.844Z,51.50
2019-06-20T08:58:50.895Z,51.90
2019-06-20T09:01:20.520Z,52.10
2019-06-20T09:03:49.353Z,52.50
2019-06-20T09:06:18.574Z,52.60
2019-06-20T09:08:47.585Z,52.60
2019-06-20T09:11:16.463Z,52.20
2019-06-20T09:13:48.294Z,51.70
2019-06-20T09:16:24.470Z,51.40
2019-06-20T09:18:53.206Z,51.30
2019-06-20T09:21:22.992Z,51.20
2019-06-20T09:23:53.833Z,51.00
2019-06-20T09:26:22.816Z,50.50
2019-06-20T09:28:52.727Z,50.40
2019-06-20T09:31:22.059Z,50.30
2019-06-20T09:33:52.186Z,50.30
2019-06-20T09:36:21.364Z,50.10
2019-06-20T09:38:50.619Z,50.10
2019-06-20T09:41:20.751Z,49.90
2019-06-20T09:43:50.060Z,49.90
2019-06-20T09:46:19.917Z,49.80
2019-06-20T09:48:49.315Z,49.70
2019-06-20T09:51:19.373Z,49.50
2019-06-20T09:53:48.509Z,49.50
2019-06-20T09:56:17.543Z,49.50
2019-06-20T09:58:47.851Z,49.40
2019-06-20T10:01:16.697Z,49.60
2019-06-20T10:03:47.324Z,49.40
2019-06-20T10:06:16.156Z,49.10
2019-06-20T10:08:46.663Z,49.00
2019-06-20T10:11:15.354Z,49.10
2019-06-20T10:13:45.021Z,48.80
2019-06-20T10:16:14.553Z,48.80
2019-06-20T10:18:43.332Z,49.50
2019-06-20T10:21:12.113Z,49.80
2019-06-20T10:23:40.887Z,49.80
2019-06-20T10:26:09.667Z,49.60
2019-06-20T10:28:38.440Z,49.20
2019-06-20T10:31:07.226Z,48.60
2019-06-20T10:33:36.007Z,47.20
2019-06-20T10:36:05.227Z,44.50
2019-06-20T10:38:33.998Z,44.80
2019-06-20T10:41:02.762Z,44.90
2019-06-20T10:43:31.542Z,44.50
2019-06-20T10:46:00.306Z,44.00
2019-06-20T10:48:29.100Z,43.50
2019-06-20T10:50:59.432Z,43.80
2019-06-20T10:53:28.213Z,43.90
2019-06-20T10:55:56.989Z,42.60
2019-06-20T10:58:25.808Z,42.30
2019-06-20T11:00:54.585Z,41.80
2019-06-20T11:03:23.364Z,40.90
2019-06-20T11:05:52.128Z,40.50
2019-06-20T11:08:20.901Z,41.00
2019-06-20T11:10:49.668Z,40.60
2019-06-20T11:13:18.452Z,41.30
2019-06-20T11:15:48.296Z,41.50
2019-06-20T11:18:17.242Z,41.50
2019-06-20T11:20:46.665Z,41.60
2019-06-20T11:23:15.389Z,41.10
2019-06-20T11:25:44.259Z,40.60
2019-06-20T11:28:13.029Z,40.20
2019-06-20T11:30:53.029Z,39.70
2019-06-20T11:33:12.320Z,38.90
2019-06-20T11:35:41.885Z,38.70
2019-06-20T11:38:10.667Z,38.50
2019-06-20T11:40:39.678Z,38.40
2019-06-20T11:43:08.412Z,38.40
2019-06-20T11:45:38.829Z,38.40
2019-06-20T11:48:07.965Z,38.50
2019-06-20T11:50:37.953Z,38.30
2019-06-20T11:53:06.710Z,38.20
2019-06-20T11:55:35.493Z,38.20
2019-06-20T11:58:04.240Z,38.00
2019-06-20T12:00:33.016Z,38.30
2019-06-20T12:03:01.781Z,38.60
2019-06-20T12:05:30.573Z,38.70
2019-06-20T12:07:59.329Z,38.40
2019-06-20T12:10:28.110Z,38.60
2019-06-20T12:12:56.872Z,38.30
2019-06-20T12:15:25.692Z,38.40
2019-06-20T12:17:54.458Z,38.40
2019-06-20T12:20:24.833Z,37.60
2019-06-20T12:22:53.604Z,37.60
2019-06-20T12:25:22.685Z,37.80
2019-06-20T12:27:51.463Z,38.40
2019-06-20T12:30:21.943Z,38.80
2019-06-20T12:32:50.895Z,39.20
2019-06-20T12:35:20.204Z,39.70
2019-06-20T12:37:50.046Z,40.40
2019-06-20T12:40:19.475Z,40.70
2019-06-20T12:42:49.302Z,40.80
2019-06-20T12:45:18.260Z,41.00
2019-06-20T12:47:47.223Z,41.30
2019-06-20T12:50:17.232Z,41.30
2019-06-20T12:52:47.552Z,41.50
2019-06-20T12:55:16.476Z,41.60
2019-06-20T12:57:46.349Z,41.60
2019-06-20T13:00:16.372Z,42.00
2019-06-20T13:02:45.565Z,42.10
2019-06-20T13:05:16.335Z,42.30
2019-06-20T13:07:46.462Z,42.50
2019-06-20T13:10:17.452Z,42.60
2019-06-20T13:12:46.495Z,42.80
2019-06-20T13:15:16.011Z,42.80
2019-06-20T13:17:45.071Z,42.90
2019-06-20T13:20:14.569Z,42.90
2019-06-20T13:22:44.657Z,42.90
2019-06-20T13:25:14.602Z,42.80
2019-06-20T13:27:43.554Z,42.90
2019-06-20T13:30:14.350Z,42.80
2019-06-20T13:32:43.833Z,42.90
2019-06-20T13:35:13.971Z,43.00
2019-06-20T13:37:43.467Z,43.10
2019-06-20T13:40:13.665Z,43.00
2019-06-20T13:42:44.071Z,43.10
2019-06-20T13:45:26.778Z,43.20
2019-06-20T13:47:55.866Z,43.30
2019-06-20T13:50:25.930Z,43.30
2019-06-20T13:52:54.888Z,43.40
2019-06-20T13:55:23.794Z,43.50
2019-06-20T13:57:52.552Z,43.50
2019-06-20T14:00:24.103Z,43.50
2019-06-20T14:02:52.855Z,43.50
2019-06-20T14:05:21.824Z,43.70
2019-06-20T14:07:53.446Z,43.70
2019-06-20T14:10:21.371Z,43.70
2019-06-20T14:12:50.216Z,43.80
2019-06-20T14:15:19.393Z,43.80
2019-06-20T14:17:49.642Z,44.00
2019-06-20T14:20:19.130Z,44.00
2019-06-20T14:22:49.415Z,44.00
2019-06-20T14:25:19.256Z,44.20
2019-06-20T14:27:48.983Z,44.20
2019-06-20T14:30:19.499Z,44.40
2019-06-20T14:32:49.411Z,44.40
2019-06-20T14:35:18.731Z,44.50
2019-06-20T14:37:49.278Z,44.60
2019-06-20T14:40:18.426Z,44.70
2019-06-20T14:42:47.906Z,44.70
2019-06-20T14:45:18.532Z,45.50
2019-06-20T14:47:47.292Z,45.20
2019-06-20T14:50:16.458Z,45.40
2019-06-20T14:52:47.684Z,45.70
2019-06-20T14:55:16.265Z,45.80
2019-06-20T14:57:46.599Z,46.10
2019-06-20T15:00:16.148Z,46.20
2019-06-20T15:02:45.849Z,46.20
2019-06-20T15:05:17.316Z,46.40
2019-06-20T15:07:47.414Z,46.60
2019-06-20T15:10:17.387Z,46.80
2019-06-20T15:12:47.935Z,46.90
2019-06-20T15:15:16.771Z,46.90
2019-06-20T15:17:47.522Z,46.90
2019-06-20T15:20:17.669Z,46.70
2019-06-20T15:22:47.421Z,46.70
2019-06-20T15:25:16.964Z,46.60
2019-06-20T15:27:47.363Z,46.50
2019-06-20T15:30:16.269Z,46.50
2019-06-20T15:32:55.674Z,46.50
2019-06-20T15:35:16.038Z,46.50
2019-06-20T15:37:44.855Z,46.50
2019-06-20T15:40:14.573Z,46.70
2019-06-20T15:42:43.349Z,46.70
2019-06-20T15:45:12.320Z,47.20
2019-06-20T15:47:41.101Z,46.90
2019-06-20T15:50:10.722Z,47.20
2019-06-20T15:52:40.737Z,47.20
2019-06-20T15:55:10.495Z,47.10
2019-06-20T15:57:39.379Z,47.20
2019-06-20T16:00:09.061Z,47.20
2019-06-20T16:02:37.839Z,47.30
2019-06-20T16:05:08.008Z,46.90
2019-06-20T16:07:37.007Z,47.30
2019-06-20T16:10:07.474Z,47.20
2019-06-20T16:12:36.236Z,47.20
2019-06-20T16:15:06.903Z,47.00
2019-06-20T16:17:35.812Z,47.30
2019-06-20T16:20:05.420Z,47.20
2019-06-20T16:22:34.203Z,47.30
2019-06-20T16:25:03.709Z,47.30
2019-06-20T16:27:32.476Z,47.30
2019-06-20T16:30:01.255Z,47.20
2019-06-20T16:32:30.106Z,47.20
2019-06-20T16:34:58.822Z,47.00
2019-06-20T16:37:27.611Z,47.00
2019-06-20T16:39:56.463Z,46.80
2019-06-20T16:42:25.241Z,46.80
2019-06-20T16:44:54.020Z,46.70
2019-06-20T16:47:22.917Z,47.20
2019-06-20T16:49:51.688Z,46.70
2019-06-20T16:52:20.493Z,46.70
2019-06-20T16:54:49.295Z,47.30
2019-06-20T16:57:18.171Z,46.50
2019-06-20T16:59:46.953Z,46.50
2019-06-20T17:02:15.719Z,46.80
2019-06-20T17:04:44.511Z,46.90
2019-06-20T17:07:13.275Z,47.00
2019-06-20T17:09:42.093Z,47.10
2019-06-20T17:12:11.320Z,47.00
2019-06-20T17:14:40.208Z,46.90
2019-06-20T17:17:08.948Z,46.80
2019-06-20T17:19:41.824Z,46.60
2019-06-20T17:22:08.303Z,46.40
2019-06-20T17:24:37.104Z,46.30
2019-06-20T17:27:06.059Z,45.20
2019-06-20T17:29:34.837Z,44.50
2019-06-20T17:32:03.590Z,43.60
2019-06-20T17:34:32.370Z,43.10
2019-06-20T17:37:01.130Z,42.40
2019-06-20T17:39:29.905Z,41.90
2019-06-20T17:41:58.887Z,41.80
2019-06-20T17:44:27.714Z,41.60
2019-06-20T17:46:56.477Z,41.30
2019-06-20T17:49:25.271Z,40.90
2019-06-20T17:51:54.004Z,40.80
2019-06-20T17:54:22.776Z,40.80
2019-06-20T17:56:51.551Z,40.50
2019-06-20T17:59:22.714Z,40.60
2019-06-20T18:01:51.032Z,40.60
2019-06-20T18:04:21.142Z,40.70
2019-06-20T18:06:49.925Z,40.90
2019-06-20T18:09:18.699Z,41.10
2019-06-20T18:11:47.492Z,41.60
2019-06-20T18:14:16.301Z,41.10
2019-06-20T18:16:45.195Z,41.30
2019-06-20T18:19:13.937Z,41.40
2019-06-20T18:21:42.718Z,41.30
2019-06-20T18:24:11.598Z,41.50
2019-06-20T18:26:40.321Z,41.70
2019-06-20T18:29:09.101Z,42.00
2019-06-20T18:31:37.886Z,41.80
2019-06-20T18:34:06.654Z,41.90
2019-06-20T18:36:35.419Z,42.00
2019-06-20T18:39:05.660Z,42.10
2019-06-20T18:41:34.432Z,42.90
2019-06-20T18:44:03.257Z,42.20
2019-06-20T18:46:33.163Z,42.30
2019-06-20T18:49:01.933Z,42.30
2019-06-20T18:51:30.780Z,42.30
2019-06-20T18:53:59.831Z,42.40
2019-06-20T18:56:28.623Z,42.70
2019-06-20T18:58:57.481Z,42.80
2019-06-20T19:01:26.257Z,42.90
2019-06-20T19:03:55.022Z,43.00
2019-06-20T19:06:35.391Z,43.00
2019-06-20T19:08:54.201Z,43.00
2019-06-20T19:11:22.975Z,43.10
2019-06-20T19:13:51.737Z,43.10
2019-06-20T19:16:20.575Z,43.10
2019-06-20T19:18:49.340Z,43.10
2019-06-20T19:21:18.110Z,43.10
2019-06-20T19:23:46.868Z,43.20
2019-06-20T19:26:15.646Z,43.10
2019-06-20T19:28:44.458Z,43.10
2019-06-20T19:31:13.380Z,43.30
2019-06-20T19:33:42.206Z,43.30
2019-06-20T19:36:10.929Z,43.30
2019-06-20T19:38:39.693Z,43.40
2019-06-20T19:41:08.465Z,43.50
2019-06-20T19:43:37.241Z,43.60
2019-06-20T19:46:06.039Z,43.60
2019-06-20T19:48:36.856Z,43.70
2019-06-20T19:51:05.450Z,43.80
2019-06-20T19:53:34.307Z,44.10
2019-06-20T19:56:03.476Z,43.80
2019-06-20T19:58:32.237Z,43.50
2019-06-20T20:01:01.018Z,43.40
2019-06-20T20:03:29.783Z,43.30
2019-06-20T20:05:58.682Z,43.70
2019-06-20T20:08:27.721Z,42.90
2019-06-20T20:10:56.484Z,43.00
2019-06-20T20:13:25.288Z,43.10
2019-06-20T20:15:54.083Z,43.00
2019-06-20T20:18:22.854Z,42.90
2019-06-20T20:20:51.824Z,42.70
2019-06-20T20:23:20.596Z,42.60
2019-06-20T20:25:49.364Z,42.60
2019-06-20T20:28:18.130Z,42.50
2019-06-20T20:30:46.916Z,42.50
2019-06-20T20:33:15.676Z,42.50
2019-06-20T20:35:44.472Z,43.10
2019-06-20T20:38:13.228Z,42.50
2019-06-20T20:40:41.997Z,42.60
2019-06-20T20:43:10.760Z,42.50
2019-06-20T20:45:39.540Z,42.50
2019-06-20T20:48:08.300Z,42.50
2019-06-20T20:50:37.084Z,42.50
2019-06-20T20:53:06.156Z,42.50
2019-06-20T20:55:34.925Z,42.40
2019-06-20T20:58:03.693Z,42.40
2019-06-20T21:00:41.239Z,42.30
2019-06-20T21:03:10.005Z,42.40
2019-06-20T21:05:50.948Z,42.40
2019-06-20T21:08:09.205Z,42.40
2019-06-20T21:10:37.976Z,42.40
2019-06-20T21:13:06.741Z,42.40
2019-06-20T21:15:35.516Z,42.40
2019-06-20T21:18:04.499Z,42.70
2019-06-20T21:20:33.277Z,42.80
2019-06-20T21:23:02.042Z,42.80
2019-06-20T21:25:32.282Z,42.60
2019-06-20T21:28:01.288Z,42.30
2019-06-20T21:30:30.468Z,42.60
2019-06-20T21:32:59.272Z,42.60
2019-06-20T21:35:28.036Z,42.30
2019-06-20T21:37:58.067Z,42.30
2019-06-20T21:40:26.793Z,42.30
2019-06-20T21:42:55.575Z,42.10
2019-06-20T21:45:24.534Z,41.50
2019-06-20T21:47:53.369Z,41.80
2019-06-20T21:50:22.141Z,41.70
2019-06-20T21:52:50.908Z,41.80
2019-06-20T21:55:19.672Z,41.60
2019-06-20T21:57:48.449Z,41.70
2019-06-20T22:00:40.011Z,41.60
2019-06-20T22:03:09.476Z,41.70
2019-06-20T22:05:39.049Z,41.70
2019-06-20T22:08:07.957Z,41.70
2019-06-20T22:10:36.743Z,41.50
2019-06-20T22:13:05.996Z,41.70
2019-06-20T22:15:34.760Z,41.80
2019-06-20T22:18:03.528Z,41.70
2019-06-20T22:20:32.294Z,41.60
2019-06-20T22:23:01.068Z,41.50
2019-06-20T22:25:29.845Z,41.30
2019-06-20T22:27:58.618Z,41.50
2019-06-20T22:30:42.493Z,41.70
2019-06-20T22:33:11.273Z,41.90
2019-06-20T22:35:40.048Z,41.90
2019-06-20T22:38:08.813Z,41.80
2019-06-20T22:40:37.584Z,41.90
2019-06-20T22:43:06.361Z,42.00
2019-06-20T22:45:35.143Z,42.20
2019-06-20T22:48:04.008Z,42.10
2019-06-20T22:50:32.764Z,42.10
2019-06-20T22:53:01.540Z,42.10
2019-06-20T22:55:30.287Z,42.10
2019-06-20T22:57:59.068Z,42.10
2019-06-20T23:00:27.829Z,42.10
2019-06-20T23:02:56.615Z,42.10
2019-06-20T23:05:25.381Z,42.00
2019-06-20T23:07:54.184Z,41.80
2019-06-20T23:10:22.946Z,42.30
2019-06-20T23:12:51.716Z,41.60
2019-06-20T23:15:20.681Z,41.40
2019-06-20T23:17:49.451Z,41.30
2019-06-20T23:20:19.128Z,41.40
2019-06-20T23:22:47.901Z,41.50
2019-06-20T23:25:17.668Z,41.40
2019-06-20T23:27:46.444Z,41.30
2019-06-20T23:30:16.101Z,41.20
2019-06-20T23:32:44.894Z,41.20
2019-06-20T23:35:13.654Z,41.20
2019-06-20T23:37:42.409Z,41.10
2019-06-20T23:40:11.302Z,41.10
2019-06-20T23:42:40.058Z,41.10
2019-06-20T23:45:09.916Z,40.80
2019-06-20T23:47:38.694Z,40.80
2019-06-20T23:50:10.756Z,40.70
2019-06-20T23:52:47.081Z,40.70
2019-06-20T23:55:15.836Z,40.50
2019-06-20T23:57:44.608Z,40.30
